createdAt,value
2023-11-10T00:00:25.321Z,16.90
2023-11-10T00:01:47.403Z,15.93
2023-11-10T00:02:50.243Z,16.35
2023-11-10T00:03:53.005Z,16.75
2023-11-10T00:04:55.518Z,16.27
2023-11-10T00:05:57.779Z,16.20
2023-11-10T00:07:00.305Z,16.90
2023-11-10T00:08:02.616Z,15.95
2023-11-10T00:09:08.424Z,15.68
2023-11-10T00:10:10.831Z,17.67
2023-11-10T00:11:15.641Z,14.68
2023-11-10T00:12:19.229Z,16.75
2023-11-10T00:13:21.329Z,16.85
2023-11-10T00:14:30.830Z,17.02
2023-11-10T00:15:37.495Z,16.08
2023-11-10T00:16:45.174Z,16.33
2023-11-10T00:17:47.283Z,17.50
2023-11-10T00:18:50.510Z,16.92
2023-11-10T00:19:53.231Z,16.88
2023-11-10T00:20:55.272Z,15.00
2023-11-10T00:21:58.326Z,16.58
2023-11-10T00:23:00.562Z,17.17
2023-11-10T00:24:04.951Z,15.63
2023-11-10T00:25:07.709Z,16.23
2023-11-10T00:26:09.865Z,15.30
2023-11-10T00:27:16.250Z,15.80
2023-11-10T00:28:18.941Z,15.43
2023-11-10T00:29:20.978Z,15.55
2023-11-10T00:30:22.989Z,14.82
2023-11-10T00:31:25.130Z,15.43
2023-11-10T00:32:27.521Z,14.10
2023-11-10T00:33:29.612Z,15.88
2023-11-10T00:34:31.684Z,15.50
2023-11-10T00:35:33.808Z,16.10
2023-11-10T00:36:36.242Z,16.67
2023-11-10T00:37:38.366Z,15.18
2023-11-10T00:38:40.697Z,15.80
2023-11-10T00:39:42.843Z,14.85
2023-11-10T00:40:45.164Z,14.85
2023-11-10T00:41:47.789Z,15.25
2023-11-10T00:42:49.885Z,13.07
2023-11-10T00:43:52.051Z,14.45
2023-11-10T00:44:54.580Z,13.90
2023-11-10T00:45:57.054Z,14.95
2023-11-10T00:47:00.895Z,14.13
2023-11-10T00:48:03.043Z,13.65
2023-11-10T00:49:05.486Z,15.00
2023-11-10T00:50:08.453Z,14.20
2023-11-10T00:51:10.418Z,14.48
2023-11-10T00:52:12.486Z,14.23
2023-11-10T00:53:14.936Z,14.60
2023-11-10T00:54:19.842Z,14.73
2023-11-10T00:55:23.087Z,15.48
2023-11-10T00:56:25.175Z,14.18
2023-11-10T00:57:27.757Z,14.20
2023-11-10T00:58:29.717Z,15.18
2023-11-10T00:59:31.694Z,15.20
2023-11-10T01:00:34.655Z,14.25
2023-11-10T01:01:37.192Z,15.07
2023-11-10T01:02:39.612Z,14.75
2023-11-10T01:03:41.855Z,14.93
2023-11-10T01:04:44.635Z,13.93
2023-11-10T01:05:47.300Z,13.77
2023-11-10T01:06:49.460Z,15.88
2023-11-10T01:07:51.600Z,12.70
2023-11-10T01:08:53.649Z,14.55
2023-11-10T01:09:56.029Z,11.68
2023-11-10T01:10:58.904Z,13.00
2023-11-10T01:12:00.973Z,14.30
2023-11-10T01:13:03.094Z,11.98
2023-11-10T01:14:05.872Z,13.20
2023-11-10T01:15:18.138Z,13.68
2023-11-10T01:16:20.473Z,12.05
2023-11-10T01:17:22.660Z,13.55
2023-11-10T01:18:25.144Z,12.95
2023-11-10T01:19:27.254Z,13.85
2023-11-10T01:20:29.391Z,13.48
2023-11-10T01:21:31.611Z,13.70
2023-11-10T01:22:34.024Z,14.77
2023-11-10T01:23:36.210Z,13.98
2023-11-10T01:24:39.706Z,13.32
2023-11-10T01:25:42.701Z,14.27
2023-11-10T01:26:45.167Z,14.43
2023-11-10T01:27:47.485Z,14.75
2023-11-10T01:28:49.492Z,13.88
2023-11-10T01:29:51.539Z,13.60
2023-11-10T01:30:54.205Z,13.80
2023-11-10T01:31:56.381Z,14.25
2023-11-10T01:32:59.242Z,14.20
2023-11-10T01:34:01.591Z,14.68
2023-11-10T01:35:04.285Z,13.35
2023-11-10T01:36:06.819Z,16.17
2023-11-10T01:37:08.846Z,15.02
2023-11-10T01:38:11.821Z,13.95
2023-11-10T01:39:14.232Z,15.07
2023-11-10T01:40:16.549Z,14.23
2023-11-10T01:41:18.686Z,14.60
2023-11-10T01:42:20.825Z,16.65
2023-11-10T01:43:23.558Z,15.68
2023-11-10T01:44:25.696Z,14.10
2023-11-10T01:45:27.788Z,15.48
2023-11-10T01:46:46.336Z,15.68
2023-11-10T01:47:48.992Z,15.02
2023-11-10T01:48:51.097Z,18.98
2023-11-10T01:49:53.944Z,15.90
2023-11-10T01:50:56.480Z,15.52
2023-11-10T01:51:58.963Z,17.45
2023-11-10T01:53:03.161Z,17.20
2023-11-10T01:54:06.791Z,18.50
2023-11-10T01:55:13.454Z,17.02
2023-11-10T01:56:15.818Z,14.38
2023-11-10T01:57:18.102Z,14.18
2023-11-10T01:58:20.389Z,14.77
2023-11-10T01:59:22.956Z,15.48
2023-11-10T02:01:36.421Z,12.90
2023-11-10T02:02:39.214Z,12.93
2023-11-10T02:04:44.949Z,12.70
2023-11-10T02:05:47.000Z,13.00
2023-11-10T02:06:49.536Z,13.65
2023-11-10T02:07:51.612Z,14.35
2023-11-10T02:08:54.447Z,14.48
2023-11-10T02:09:56.477Z,14.75
2023-11-10T02:10:58.765Z,13.02
2023-11-10T02:12:00.839Z,14.77
2023-11-10T02:13:03.325Z,13.60
2023-11-10T02:14:08.589Z,15.57
2023-11-10T02:15:11.697Z,14.57
2023-11-10T02:17:16.056Z,13.75
2023-11-10T02:18:18.227Z,14.10
2023-11-10T02:19:20.904Z,14.75
2023-11-10T02:20:23.016Z,14.35
2023-11-10T02:21:26.229Z,15.05
2023-11-10T02:22:28.330Z,14.20
2023-11-10T02:23:33.069Z,14.80
2023-11-10T02:24:37.100Z,14.48
2023-11-10T02:25:39.482Z,14.02
2023-11-10T02:26:41.609Z,13.45
2023-11-10T02:27:44.200Z,13.20
2023-11-10T02:28:46.280Z,12.20
2023-11-10T02:29:48.707Z,11.73
2023-11-10T02:30:50.789Z,13.68
2023-11-10T02:31:52.951Z,12.13
2023-11-10T02:32:55.076Z,13.55
2023-11-10T02:33:57.888Z,12.45
2023-11-10T02:35:00.331Z,11.77
2023-11-10T02:36:02.587Z,11.93
2023-11-10T02:37:04.730Z,12.40
2023-11-10T02:38:09.737Z,10.82
2023-11-10T02:39:12.194Z,10.82
2023-11-10T02:40:15.317Z,11.20
2023-11-10T02:42:19.750Z,10.32
2023-11-10T02:43:21.807Z,11.20
2023-11-10T02:44:23.898Z,11.10
2023-11-10T02:45:25.965Z,9.50
2023-11-10T02:46:28.399Z,10.43
2023-11-10T02:47:32.090Z,10.25
2023-11-10T02:48:34.448Z,11.05
2023-11-10T02:49:36.443Z,9.63
2023-11-10T02:50:38.980Z,9.55
2023-11-10T02:51:41.086Z,9.75
2023-11-10T02:52:43.317Z,9.02
2023-11-10T02:53:45.352Z,10.10
2023-11-10T02:54:47.860Z,9.77
2023-11-10T02:55:50.056Z,10.48
2023-11-10T02:56:52.115Z,11.07
2023-11-10T02:57:54.159Z,9.27
2023-11-10T02:58:56.503Z,9.63
2023-11-10T02:59:59.378Z,9.25
2023-11-10T03:02:04.914Z,9.48
2023-11-10T03:04:09.739Z,8.27
2023-11-10T03:05:11.866Z,9.38
2023-11-10T03:06:14.606Z,9.00
2023-11-10T03:07:17.646Z,9.30
2023-11-10T03:08:19.678Z,8.60
2023-11-10T03:09:24.144Z,8.50
2023-11-10T03:10:27.410Z,10.15
2023-11-10T03:11:30.272Z,9.05
2023-11-10T03:12:33.712Z,9.07
2023-11-10T03:13:35.906Z,8.27
2023-11-10T03:14:38.305Z,8.45
2023-11-10T03:15:40.811Z,8.65
2023-11-10T03:16:42.992Z,8.52
2023-11-10T03:17:45.880Z,8.93
2023-11-10T03:19:50.487Z,8.13
2023-11-10T03:20:52.526Z,7.85
2023-11-10T03:21:54.705Z,6.68
2023-11-10T03:22:56.795Z,7.10
2023-11-10T03:23:59.227Z,7.75
2023-11-10T03:25:01.811Z,6.85
2023-11-10T03:26:03.954Z,7.38
2023-11-10T03:27:06.042Z,7.15
2023-11-10T03:28:08.933Z,8.27
2023-11-10T03:29:10.937Z,6.63
2023-11-10T03:30:13.376Z,6.05
2023-11-10T03:31:15.586Z,6.22
2023-11-10T03:32:20.303Z,7.03
2023-11-10T03:33:24.418Z,6.35
2023-11-10T03:34:26.488Z,7.30
2023-11-10T03:35:28.569Z,7.28
2023-11-10T03:36:31.021Z,6.80
2023-11-10T03:37:33.198Z,6.82
2023-11-10T03:38:35.336Z,7.10
2023-11-10T03:39:37.473Z,6.03
2023-11-10T03:40:39.903Z,5.80
2023-11-10T03:41:42.019Z,6.90
2023-11-10T03:42:44.179Z,7.00
2023-11-10T03:43:46.293Z,5.97
2023-11-10T03:44:49.305Z,6.82
2023-11-10T03:45:51.423Z,6.25
2023-11-10T03:46:53.613Z,6.32
2023-11-10T03:47:55.770Z,6.35
2023-11-10T03:48:58.171Z,6.05
2023-11-10T03:50:00.321Z,6.20
2023-11-10T03:51:08.960Z,6.63
2023-11-10T03:52:11.018Z,6.25
2023-11-10T03:53:13.703Z,6.50
2023-11-10T03:54:15.769Z,7.40
2023-11-10T03:55:17.803Z,7.50
2023-11-10T03:56:19.803Z,6.65
2023-11-10T03:57:22.239Z,6.65
2023-11-10T03:58:24.357Z,7.18
2023-11-10T03:59:26.982Z,7.07
2023-11-10T04:00:39.129Z,7.88
2023-11-10T04:01:48.626Z,7.15
2023-11-10T04:02:50.823Z,6.40
2023-11-10T04:03:53.009Z,7.65
2023-11-10T04:04:55.104Z,6.95
2023-11-10T04:05:57.443Z,7.07
2023-11-10T04:06:59.608Z,7.80
2023-11-10T04:08:01.719Z,7.25
2023-11-10T04:09:04.221Z,6.55
2023-11-10T04:10:07.182Z,6.90
2023-11-10T04:11:10.902Z,6.70
2023-11-10T04:12:13.106Z,6.65
2023-11-10T04:13:15.223Z,6.47
2023-11-10T04:14:17.600Z,6.18
2023-11-10T04:15:19.654Z,6.70
2023-11-10T04:16:26.008Z,6.57
2023-11-10T04:17:28.340Z,6.32
2023-11-10T04:18:30.820Z,5.80
2023-11-10T04:19:34.622Z,5.82
2023-11-10T04:20:36.801Z,5.80
2023-11-10T04:21:39.161Z,5.85
2023-11-10T04:22:43.375Z,5.32
2023-11-10T04:23:45.470Z,6.65
2023-11-10T04:24:47.610Z,6.80
2023-11-10T04:25:50.417Z,5.90
2023-11-10T04:26:52.725Z,6.15
2023-11-10T04:27:55.761Z,5.45
2023-11-10T04:29:00.367Z,5.50
2023-11-10T04:30:02.526Z,5.82
2023-11-10T04:31:05.735Z,5.03
2023-11-10T04:33:10.162Z,5.75
2023-11-10T04:34:12.391Z,5.15
2023-11-10T04:35:15.111Z,5.70
2023-11-10T04:36:17.206Z,5.43
2023-11-10T04:37:19.555Z,5.15
2023-11-10T04:38:21.553Z,5.50
2023-11-10T04:39:25.116Z,5.10
2023-11-10T04:40:29.956Z,5.13
2023-11-10T04:41:34.370Z,5.20
2023-11-10T04:42:36.768Z,5.03
2023-11-10T04:43:41.806Z,5.18
2023-11-10T04:44:43.907Z,4.38
2023-11-10T04:45:46.117Z,4.68
2023-11-10T04:46:48.511Z,4.60
2023-11-10T04:47:51.150Z,4.57
2023-11-10T04:48:53.366Z,3.95
2023-11-10T04:49:55.566Z,4.57
2023-11-10T04:50:57.597Z,4.90
2023-11-10T04:52:00.007Z,4.45
2023-11-10T04:53:02.191Z,4.38
2023-11-10T04:54:05.209Z,4.80
2023-11-10T04:56:10.780Z,4.32
2023-11-10T04:57:12.962Z,5.25
2023-11-10T04:58:14.940Z,4.38
2023-11-10T04:59:17.064Z,5.18
2023-11-10T05:00:21.529Z,4.75
2023-11-10T05:01:23.690Z,4.95
2023-11-10T05:02:25.762Z,5.07
2023-11-10T05:03:27.949Z,4.70
2023-11-10T05:04:31.810Z,4.60
2023-11-10T05:05:35.748Z,5.10
2023-11-10T05:06:38.024Z,4.85
2023-11-10T05:07:41.202Z,5.72
2023-11-10T05:08:43.898Z,5.20
2023-11-10T05:09:45.983Z,4.90
2023-11-10T05:10:48.514Z,5.30
2023-11-10T05:11:50.566Z,5.25
2023-11-10T05:12:53.300Z,5.30
2023-11-10T05:13:55.429Z,4.82
2023-11-10T05:14:57.511Z,4.95
2023-11-10T05:15:59.723Z,4.78
2023-11-10T05:17:02.173Z,5.45
2023-11-10T05:18:06.056Z,5.10
2023-11-10T05:19:08.161Z,4.68
2023-11-10T05:20:14.875Z,5.10
2023-11-10T05:21:19.005Z,5.35
2023-11-10T05:22:21.398Z,5.07
2023-11-10T05:23:23.413Z,5.25
2023-11-10T05:24:25.545Z,5.20
2023-11-10T05:25:27.840Z,5.13
2023-11-10T05:26:31.668Z,5.57
2023-11-10T05:27:33.743Z,4.85
2023-11-10T05:28:36.048Z,5.47
2023-11-10T05:29:38.032Z,5.50
2023-11-10T05:30:40.824Z,5.70
2023-11-10T05:31:46.536Z,5.75
2023-11-10T05:32:48.779Z,5.40
2023-11-10T05:33:52.839Z,4.80
2023-11-10T05:34:55.673Z,5.07
2023-11-10T05:35:58.898Z,4.90
2023-11-10T05:37:00.994Z,5.53
2023-11-10T05:38:03.133Z,5.70
2023-11-10T05:39:06.416Z,5.78
2023-11-10T05:41:13.538Z,4.65
2023-11-10T05:42:15.494Z,5.72
2023-11-10T05:43:17.917Z,5.55
2023-11-10T05:44:19.971Z,5.35
2023-11-10T05:45:21.996Z,5.30
2023-11-10T05:46:24.172Z,5.90
2023-11-10T05:47:27.323Z,5.60
2023-11-10T05:49:33.305Z,6.18
2023-11-10T05:50:35.920Z,5.15
2023-11-10T05:52:40.591Z,5.93
2023-11-10T05:53:43.065Z,5.63
2023-11-10T05:54:45.232Z,5.53
2023-11-10T05:55:48.565Z,6.32
2023-11-10T05:57:52.542Z,5.55
2023-11-10T05:58:54.875Z,6.63
2023-11-10T05:59:59.025Z,6.13
2023-11-10T06:01:01.268Z,6.82
2023-11-10T06:02:04.385Z,6.78
2023-11-10T06:03:07.100Z,6.78
2023-11-10T06:04:19.350Z,6.25
2023-11-10T06:05:29.573Z,6.10
2023-11-10T06:06:31.711Z,7.13
2023-11-10T06:07:33.798Z,5.72
2023-11-10T06:08:37.937Z,6.57
2023-11-10T06:09:40.144Z,6.03
2023-11-10T06:10:44.022Z,6.95
2023-11-10T06:11:53.449Z,6.05
2023-11-10T06:12:58.615Z,6.80
2023-11-10T06:14:03.168Z,7.00
2023-11-10T06:15:06.772Z,6.50
2023-11-10T06:16:09.549Z,7.15
2023-11-10T06:17:12.280Z,6.38
2023-11-10T06:18:14.450Z,6.38
2023-11-10T06:19:17.412Z,5.85
2023-11-10T06:21:24.658Z,5.93
2023-11-10T06:22:27.345Z,6.18
2023-11-10T06:23:29.427Z,5.97
2023-11-10T06:24:31.436Z,6.20
2023-11-10T06:25:33.882Z,5.68
2023-11-10T06:26:37.140Z,6.32
2023-11-10T06:27:39.409Z,6.45
2023-11-10T06:28:41.513Z,6.93
2023-11-10T06:29:44.212Z,4.85
2023-11-10T06:30:46.377Z,5.38
2023-11-10T06:31:49.507Z,5.72
2023-11-10T06:32:52.004Z,6.28
2023-11-10T06:33:54.541Z,5.00
2023-11-10T06:34:56.622Z,4.88
2023-11-10T06:35:59.336Z,5.22
2023-11-10T06:37:02.703Z,4.82
2023-11-10T06:38:05.163Z,5.00
2023-11-10T06:39:07.214Z,5.88
2023-11-10T06:40:10.394Z,6.07
2023-11-10T06:41:13.191Z,5.63
2023-11-10T06:42:15.557Z,5.25
2023-11-10T06:43:17.677Z,5.80
2023-11-10T06:44:20.895Z,4.97
2023-11-10T06:45:23.196Z,5.18
2023-11-10T06:46:26.352Z,4.90
2023-11-10T06:47:28.599Z,5.00
2023-11-10T06:48:30.887Z,4.80
2023-11-10T06:49:34.192Z,5.05
2023-11-10T06:50:36.626Z,4.57
2023-11-10T06:51:38.702Z,4.35
2023-11-10T06:52:45.852Z,4.50
2023-11-10T06:53:47.947Z,5.30
2023-11-10T06:54:52.206Z,4.15
2023-11-10T06:55:55.273Z,4.38
2023-11-10T06:56:58.544Z,3.83
2023-11-10T06:58:00.542Z,4.03
2023-11-10T06:59:02.872Z,4.20
2023-11-10T07:00:05.450Z,4.70
2023-11-10T07:01:09.370Z,4.75
2023-11-10T07:02:13.965Z,4.53
2023-11-10T07:03:18.326Z,3.85
2023-11-10T07:04:21.154Z,3.97
2023-11-10T07:05:23.698Z,3.88
2023-11-10T07:06:26.743Z,4.50
2023-11-10T07:07:29.176Z,4.15
2023-11-10T07:08:32.654Z,4.30
2023-11-10T07:09:34.669Z,4.45
2023-11-10T07:10:46.143Z,4.20
2023-11-10T07:11:49.736Z,4.85
2023-11-10T07:13:53.757Z,4.05
2023-11-10T07:14:56.097Z,4.43
2023-11-10T07:16:00.477Z,5.03
2023-11-10T07:17:02.972Z,4.07
2023-11-10T07:18:05.349Z,4.15
2023-11-10T07:19:07.407Z,4.88
2023-11-10T07:20:13.206Z,4.78
2023-11-10T07:21:15.326Z,4.60
2023-11-10T07:22:17.439Z,3.50
2023-11-10T07:23:20.600Z,4.20
2023-11-10T07:24:23.063Z,4.85
2023-11-10T07:25:27.871Z,3.88
2023-11-10T07:26:29.942Z,4.18
2023-11-10T07:27:32.178Z,4.85
2023-11-10T07:28:34.674Z,4.72
2023-11-10T07:29:37.531Z,4.60
2023-11-10T07:31:45.643Z,3.92
2023-11-10T07:32:48.170Z,4.20
2023-11-10T07:33:50.181Z,4.45
2023-11-10T07:34:52.246Z,3.97
2023-11-10T07:35:54.989Z,4.05
2023-11-10T07:36:58.983Z,5.00
2023-11-10T07:38:01.077Z,4.22
2023-11-10T07:39:03.496Z,4.60
2023-11-10T07:40:06.654Z,3.78
2023-11-10T07:41:09.160Z,4.25
2023-11-10T07:42:11.217Z,4.05
2023-11-10T07:43:13.197Z,4.25
2023-11-10T07:44:15.270Z,4.10
2023-11-10T07:45:17.827Z,3.38
2023-11-10T07:46:23.098Z,4.47
2023-11-10T07:47:25.273Z,3.92
2023-11-10T07:48:27.267Z,4.28
2023-11-10T07:49:29.632Z,4.13
2023-11-10T07:50:31.674Z,4.85
2023-11-10T07:51:33.859Z,4.72
2023-11-10T07:52:35.936Z,4.22
2023-11-10T07:53:39.036Z,3.67
2023-11-10T07:54:41.131Z,4.00
2023-11-10T07:55:44.360Z,3.53
2023-11-10T07:56:47.152Z,4.07
2023-11-10T07:57:49.842Z,3.53
2023-11-10T07:58:51.997Z,3.63
2023-11-10T07:59:54.088Z,3.42
2023-11-10T08:00:56.369Z,3.22
2023-11-10T08:02:02.655Z,3.20
2023-11-10T08:03:04.943Z,3.10
2023-11-10T08:04:07.359Z,3.20
2023-11-10T08:05:09.949Z,2.70
2023-11-10T08:07:14.603Z,3.70
2023-11-10T08:08:16.868Z,3.63
2023-11-10T08:09:19.747Z,2.78
2023-11-10T08:10:22.490Z,3.67
2023-11-10T08:11:24.521Z,3.25
2023-11-10T08:12:26.626Z,2.88
2023-11-10T08:13:28.959Z,3.22
2023-11-10T08:14:31.576Z,3.40
2023-11-10T08:15:34.388Z,2.72
2023-11-10T08:17:38.406Z,2.42
2023-11-10T08:18:41.193Z,2.50
2023-11-10T08:19:43.516Z,2.55
2023-11-10T08:20:46.011Z,2.53
2023-11-10T08:21:49.344Z,2.70
2023-11-10T08:22:51.721Z,2.83
2023-11-10T08:23:53.803Z,2.65
2023-11-10T08:24:57.428Z,1.83
2023-11-10T08:25:59.570Z,3.22
2023-11-10T08:27:02.283Z,2.63
2023-11-10T08:28:06.526Z,2.45
2023-11-10T08:29:11.053Z,3.15
2023-11-10T08:30:14.185Z,3.00
2023-11-10T08:31:16.901Z,2.95
2023-11-10T08:32:19.098Z,2.72
2023-11-10T08:33:21.124Z,1.85
2023-11-10T08:34:23.173Z,2.20
2023-11-10T08:35:25.526Z,2.35
2023-11-10T08:36:27.587Z,2.40
2023-11-10T08:37:29.870Z,2.17
2023-11-10T08:38:32.917Z,1.88
2023-11-10T08:39:35.719Z,2.22
2023-11-10T08:40:37.799Z,2.22
2023-11-10T08:41:39.832Z,2.30
2023-11-10T08:42:43.555Z,2.40
2023-11-10T08:43:47.925Z,2.15
2023-11-10T08:44:50.674Z,2.47
2023-11-10T08:45:52.757Z,2.13
2023-11-10T08:46:55.452Z,1.88
2023-11-10T08:47:57.994Z,2.03
2023-11-10T08:49:01.504Z,1.70
2023-11-10T08:50:03.960Z,1.70
2023-11-10T08:51:06.398Z,1.70
2023-11-10T08:52:08.845Z,2.53
2023-11-10T08:53:10.962Z,1.73
2023-11-10T08:54:13.230Z,2.00
2023-11-10T08:55:19.312Z,2.30
2023-11-10T08:56:21.889Z,2.15
2023-11-10T08:57:24.037Z,1.98
2023-11-10T08:58:26.189Z,2.20
2023-11-10T08:59:28.225Z,1.77
2023-11-10T09:00:30.949Z,1.88
2023-11-10T09:01:37.774Z,1.63
2023-11-10T09:02:41.020Z,1.42
2023-11-10T09:03:43.236Z,2.05
2023-11-10T09:05:50.434Z,1.70
2023-11-10T09:06:52.998Z,1.52
2023-11-10T09:07:55.133Z,1.70
2023-11-10T09:08:57.563Z,2.03
2023-11-10T09:10:00.608Z,1.77
2023-11-10T09:11:02.778Z,1.70
2023-11-10T09:12:07.177Z,1.65
2023-11-10T09:13:09.615Z,1.60
2023-11-10T09:14:15.300Z,1.73
2023-11-10T09:15:17.931Z,1.17
2023-11-10T09:16:20.289Z,1.55
2023-11-10T09:17:23.602Z,1.25
2023-11-10T09:19:27.773Z,1.10
2023-11-10T09:20:30.105Z,1.40
2023-11-10T09:21:32.909Z,1.60
2023-11-10T09:22:38.184Z,1.60
2023-11-10T09:23:40.243Z,1.88
2023-11-10T09:24:43.073Z,1.63
2023-11-10T09:25:45.897Z,1.70
2023-11-10T09:26:49.161Z,1.50
2023-11-10T09:27:51.614Z,1.60
2023-11-10T09:28:53.681Z,1.50
2023-11-10T09:29:56.091Z,1.48
2023-11-10T09:30:58.484Z,1.60
2023-11-10T09:32:00.674Z,1.45
2023-11-10T09:33:03.942Z,1.73
2023-11-10T09:34:06.444Z,1.58
2023-11-10T09:35:08.651Z,1.90
2023-11-10T09:36:10.644Z,1.65
2023-11-10T09:37:13.181Z,2.08
2023-11-10T09:39:17.531Z,1.70
2023-11-10T09:40:24.814Z,2.28
2023-11-10T09:41:28.824Z,1.95
2023-11-10T09:42:31.180Z,1.55
2023-11-10T09:43:34.331Z,1.60
2023-11-10T09:44:50.654Z,2.20
2023-11-10T09:45:53.282Z,1.73
2023-11-10T09:46:55.922Z,1.70
2023-11-10T09:47:59.317Z,1.70
2023-11-10T09:49:05.661Z,1.33
2023-11-10T09:50:10.290Z,1.55
2023-11-10T09:51:14.272Z,1.55
2023-11-10T09:52:17.408Z,1.30
2023-11-10T09:53:20.133Z,1.80
2023-11-10T09:54:24.703Z,1.75
2023-11-10T09:55:27.335Z,1.92
2023-11-10T09:56:32.560Z,1.80
2023-11-10T09:57:34.696Z,1.83
2023-11-10T09:58:38.042Z,1.85
2023-11-10T09:59:42.849Z,1.60
2023-11-10T10:00:45.372Z,1.67
2023-11-10T10:01:47.544Z,1.92
2023-11-10T10:02:52.863Z,1.52
2023-11-10T10:03:55.527Z,1.70
2023-11-10T10:04:58.151Z,1.80
2023-11-10T10:06:01.127Z,1.88
2023-11-10T10:07:03.931Z,1.73
2023-11-10T10:08:06.325Z,1.77
2023-11-10T10:09:10.856Z,1.45
2023-11-10T10:10:13.396Z,1.90
2023-11-10T10:11:16.076Z,1.80
2023-11-10T10:13:21.986Z,1.58
2023-11-10T10:14:24.230Z,1.80
2023-11-10T10:15:31.572Z,1.67
2023-11-10T10:16:34.481Z,1.85
2023-11-10T10:17:40.609Z,1.88
2023-11-10T10:18:46.526Z,1.98
2023-11-10T10:19:51.117Z,2.30
2023-11-10T10:21:00.884Z,1.83
2023-11-10T10:22:04.353Z,2.40
2023-11-10T10:23:09.193Z,1.90
2023-11-10T10:24:11.280Z,2.28
2023-11-10T10:25:14.774Z,2.10
2023-11-10T10:26:16.855Z,2.65
2023-11-10T10:27:20.292Z,2.60
2023-11-10T10:28:24.671Z,2.42
2023-11-10T10:30:29.199Z,2.60
2023-11-10T10:31:31.514Z,3.00
2023-11-10T10:32:35.141Z,2.90
2023-11-10T10:33:37.621Z,2.90
2023-11-10T10:34:42.489Z,2.90
2023-11-10T10:35:45.622Z,2.67
2023-11-10T10:36:49.614Z,3.25
2023-11-10T10:37:54.860Z,2.95
2023-11-10T10:38:57.223Z,3.03
2023-11-10T10:40:02.465Z,2.78
2023-11-10T10:41:06.414Z,2.30
2023-11-10T10:42:15.705Z,2.50
2023-11-10T10:43:19.694Z,2.47
2023-11-10T10:44:22.219Z,2.80
2023-11-10T10:45:31.745Z,2.55
2023-11-10T10:46:37.869Z,3.05
2023-11-10T10:47:42.117Z,3.35
2023-11-10T10:48:45.063Z,2.90
2023-11-10T10:50:56.285Z,2.70
2023-11-10T10:51:58.338Z,2.97
2023-11-10T10:53:01.674Z,2.90
2023-11-10T10:54:08.967Z,3.03
2023-11-10T10:55:11.398Z,3.13
2023-11-10T10:56:15.743Z,2.80
2023-11-10T10:57:21.504Z,3.15
2023-11-10T10:58:24.153Z,2.58
2023-11-10T10:59:28.509Z,2.67
2023-11-10T11:00:32.585Z,2.70
2023-11-10T11:01:38.200Z,3.05
2023-11-10T11:02:45.779Z,2.42
2023-11-10T11:04:26.364Z,2.78
2023-11-10T11:05:29.556Z,2.45
2023-11-10T11:06:46.893Z,2.55
2023-11-10T11:08:13.293Z,2.40
2023-11-10T11:09:36.745Z,2.33
2023-11-10T11:10:54.719Z,2.67
2023-11-10T11:12:21.825Z,2.53
2023-11-10T11:13:38.388Z,2.03
2023-11-10T11:15:19.744Z,2.20
2023-11-10T11:16:24.697Z,2.03
2023-11-10T11:17:41.742Z,2.20
2023-11-10T11:18:46.937Z,2.15
2023-11-10T11:19:50.097Z,3.13
2023-11-10T11:20:53.270Z,2.08
2023-11-10T11:21:56.272Z,2.50
2023-11-10T11:22:58.695Z,2.45
2023-11-10T11:24:08.138Z,2.42
2023-11-10T11:25:10.930Z,2.30
2023-11-10T11:26:17.331Z,1.80
2023-11-10T11:27:26.140Z,2.35
2023-11-10T11:28:35.729Z,2.53
2023-11-10T11:30:42.306Z,2.30
2023-11-10T11:31:48.627Z,2.33
2023-11-10T11:32:58.504Z,2.38
2023-11-10T11:34:04.430Z,2.55
2023-11-10T11:35:11.409Z,2.20
2023-11-10T11:36:19.552Z,2.40
2023-11-10T11:37:22.061Z,2.13
2023-11-10T11:38:26.003Z,2.22
2023-11-10T11:39:28.109Z,2.08
2023-11-10T11:40:36.136Z,2.45
2023-11-10T11:41:39.416Z,2.78
2023-11-10T11:42:45.212Z,2.20
2023-11-10T11:43:51.891Z,2.30
2023-11-10T11:45:00.877Z,2.15
2023-11-10T11:46:10.024Z,2.83
2023-11-10T11:47:13.272Z,2.55
2023-11-10T11:48:17.140Z,2.63
2023-11-10T11:49:19.635Z,2.20
2023-11-10T11:51:24.446Z,1.90
2023-11-10T11:52:26.717Z,2.20
2023-11-10T11:53:28.767Z,1.92
2023-11-10T11:54:31.189Z,1.88
2023-11-10T11:55:35.440Z,1.67
2023-11-10T11:56:37.835Z,1.90
2023-11-10T11:57:40.647Z,1.98
2023-11-10T11:58:43.045Z,2.10
2023-11-10T11:59:45.501Z,2.28
2023-11-10T12:00:47.720Z,1.77
2023-11-10T12:01:51.135Z,1.70
2023-11-10T12:02:59.589Z,1.58
2023-11-10T12:04:02.646Z,1.70
2023-11-10T12:05:08.884Z,1.65
2023-11-10T12:06:10.935Z,1.80
2023-11-10T12:07:13.904Z,2.30
2023-11-10T12:08:17.710Z,2.20
2023-11-10T12:09:19.881Z,2.53
2023-11-10T12:10:21.989Z,2.00
2023-11-10T12:11:24.432Z,1.70
2023-11-10T12:12:27.759Z,1.75
2023-11-10T12:13:29.835Z,1.52
2023-11-10T12:14:33.453Z,1.70
2023-11-10T12:15:36.663Z,1.77
2023-11-10T12:17:43.555Z,1.92
2023-11-10T12:18:51.770Z,1.70
2023-11-10T12:19:54.855Z,1.83
2023-11-10T12:20:59.396Z,1.40
2023-11-10T12:22:01.746Z,1.80
2023-11-10T12:23:07.744Z,1.75
2023-11-10T12:24:10.443Z,1.45
2023-11-10T12:25:12.689Z,1.38
2023-11-10T12:26:14.787Z,1.58
2023-11-10T12:27:17.638Z,1.05
2023-11-10T12:28:20.869Z,1.10
2023-11-10T12:30:29.953Z,1.10
2023-11-10T12:31:34.288Z,0.73
2023-11-10T12:32:44.702Z,1.20
2023-11-10T12:33:47.333Z,1.00
2023-11-10T12:34:52.422Z,0.85
2023-11-10T12:35:57.530Z,0.82
2023-11-10T12:37:03.931Z,0.85
2023-11-10T12:38:07.839Z,0.80
2023-11-10T12:39:18.582Z,1.30
2023-11-10T12:40:20.909Z,1.23
2023-11-10T12:41:23.505Z,0.80
2023-11-10T12:42:27.408Z,0.70
2023-11-10T12:43:30.880Z,0.50
2023-11-10T12:44:33.673Z,0.70
2023-11-10T12:45:36.332Z,0.40
2023-11-10T12:46:38.643Z,0.50
2023-11-10T12:47:53.735Z,0.60
2023-11-10T12:48:59.317Z,0.60
2023-11-10T12:50:09.756Z,0.90
2023-11-10T12:51:12.833Z,0.57
2023-11-10T12:52:17.410Z,0.55
2023-11-10T12:53:19.830Z,0.52
2023-11-10T12:54:26.441Z,1.20
2023-11-10T12:55:29.139Z,0.40
2023-11-10T12:56:31.709Z,0.70
2023-11-10T12:57:33.914Z,0.70
2023-11-10T12:58:36.503Z,0.73
2023-11-10T12:59:39.229Z,0.80
2023-11-10T13:00:43.930Z,1.05
2023-11-10T13:01:46.932Z,0.98
2023-11-10T13:02:50.478Z,0.70
2023-11-10T13:03:52.648Z,1.00
2023-11-10T13:04:55.142Z,0.65
2023-11-10T13:05:57.340Z,0.75
2023-11-10T13:07:00.610Z,0.90
2023-11-10T13:08:03.332Z,1.00
2023-11-10T13:09:06.634Z,0.65
2023-11-10T13:10:09.388Z,1.00
2023-11-10T13:11:11.857Z,1.10
2023-11-10T13:12:14.001Z,1.13
2023-11-10T13:13:16.076Z,1.40
2023-11-10T13:14:18.470Z,1.50
2023-11-10T13:15:22.056Z,1.80
2023-11-10T13:16:25.157Z,1.35
2023-11-10T13:17:28.001Z,1.88
2023-11-10T13:18:30.012Z,1.38
2023-11-10T13:19:32.430Z,1.73
2023-11-10T13:20:36.532Z,2.00
2023-11-10T13:21:40.379Z,1.88
2023-11-10T13:22:42.564Z,2.47
2023-11-10T13:23:44.903Z,2.13
2023-11-10T13:24:47.890Z,1.95
2023-11-10T13:25:50.851Z,1.48
2023-11-10T13:27:55.413Z,1.55
2023-11-10T13:28:57.488Z,1.60
2023-11-10T13:30:02.397Z,1.83
2023-11-10T13:31:24.771Z,1.67
2023-11-10T13:32:30.496Z,1.77
2023-11-10T13:33:32.952Z,2.20
2023-11-10T13:34:35.043Z,2.42
2023-11-10T13:35:41.501Z,2.63
2023-11-10T13:36:44.440Z,2.17
2023-11-10T13:37:46.527Z,2.70
2023-11-10T13:38:48.673Z,2.60
2023-11-10T13:39:50.745Z,2.88
2023-11-10T13:40:53.167Z,3.15
2023-11-10T13:41:55.187Z,2.65
2023-11-10T13:42:57.309Z,3.03
2023-11-10T13:43:59.347Z,3.20
2023-11-10T13:45:01.695Z,2.88
2023-11-10T13:46:04.822Z,3.67
2023-11-10T13:47:08.367Z,3.30
2023-11-10T13:48:12.579Z,2.95
2023-11-10T13:49:15.154Z,2.85
2023-11-10T13:50:17.323Z,2.78
2023-11-10T13:51:19.525Z,2.53
2023-11-10T13:52:21.734Z,3.10
2023-11-10T13:53:24.379Z,2.97
2023-11-10T13:54:29.170Z,2.78
2023-11-10T13:55:31.688Z,2.50
2023-11-10T13:56:35.378Z,2.13
2023-11-10T13:57:38.482Z,2.63
2023-11-10T13:58:41.344Z,2.50
2023-11-10T14:00:47.724Z,1.83
2023-11-10T14:01:50.584Z,2.03
2023-11-10T14:02:52.777Z,2.10
2023-11-10T14:03:55.352Z,2.20
2023-11-10T14:04:57.399Z,2.03
2023-11-10T14:05:59.783Z,2.30
2023-11-10T14:07:01.892Z,2.38
2023-11-10T14:08:04.371Z,2.17
2023-11-10T14:09:10.747Z,1.60
2023-11-10T14:10:13.912Z,1.83
2023-11-10T14:11:16.154Z,2.35
2023-11-10T14:12:18.278Z,2.15
2023-11-10T14:13:20.222Z,2.05
2023-11-10T14:14:22.789Z,1.83
2023-11-10T14:15:25.425Z,1.88
2023-11-10T14:16:27.918Z,2.00
2023-11-10T14:17:31.834Z,2.40
2023-11-10T14:18:34.330Z,1.75
2023-11-10T14:19:36.610Z,2.08
2023-11-10T14:20:38.640Z,2.47
2023-11-10T14:21:41.002Z,1.95
2023-11-10T14:22:45.008Z,2.25
2023-11-10T14:23:47.082Z,2.38
2023-11-10T14:24:49.076Z,2.65
2023-11-10T14:25:51.433Z,2.97
2023-11-10T14:26:53.834Z,2.75
2023-11-10T14:27:55.978Z,2.92
2023-11-10T14:28:58.135Z,3.22
2023-11-10T14:30:00.219Z,2.83
2023-11-10T14:31:03.301Z,3.42